SBMQ/MCP METAR and TAF weather

Enter ICAO airport designator
Station Type Date Time Source
SBMQ METAR 2019/06/18 04:00 UTC NOAA

SBMQ 180400Z 02004KT 9999 FEW013 27/27 Q1014


Station Type Date Time Source
SBMQ Decoded METAR 2019/06/18 04:00 UTC NOAA

Macapa, Brazil (SBMQ) 00-02N 050-03W
Jun 18, 2019 - 12:00 AM EDT / 2019.06.18 0400 UTC
Wind: from the NNE (020 degrees) at 5 MPH (4 KT):0
Visibility: greater than 7 mile(s):0
Sky conditions: mostly clear
Temperature: 80 F (27 C)
Dew Point: 80 F (27 C)
Relative Humidity: 100%
Pressure (altimeter): 29.94 in. Hg (1014 hPa)
ob: SBMQ 180400Z 02004KT 9999 FEW013 27/27 Q1014
cycle: 4

Station Type Date Time Source
SBMQ TAF 2019/06/18 06:48 UTC NOAA

TAF TAF SBMQ 180330Z 1806/1906 07005KT 9999 SCT013 TN25/1809Z TX33/1817Z
BECMG 1813/1815 09005KT BKN020
BECMG 1815/1817 07007KT SCT025
BECMG 1820/1822 SCT020 FEW030TCU
BECMG 1823/1901 05005KT SCT013
BECMG 1902/1904 07007KT SCT010 BKN015
BECMG 1904/1906 SCT010
RMK PFV

Example: see airport list